sensor_id;sensor_type;location;lat;lon;timestamp;P1;durP1;ratioP1;P2;durP2;ratioP2
13927;SDS011;7036;50.834;4.718;2022-10-31T00:01:54;4.28;;;3.85;;
13927;SDS011;7036;50.834;4.718;2022-10-31T00:04:22;5.07;;;4.00;;
13927;SDS011;7036;50.834;4.718;2022-10-31T00:06:49;5.68;;;4.03;;
13927;SDS011;7036;50.834;4.718;2022-10-31T00:09:17;3.58;;;3.28;;
13927;SDS011;7036;50.834;4.718;2022-10-31T00:11:44;5.10;;;4.03;;
13927;SDS011;7036;50.834;4.718;2022-10-31T00:14:12;4.32;;;3.90;;
13927;SDS011;7036;50.834;4.718;2022-10-31T00:16:39;7.18;;;4.53;;
13927;SDS011;7036;50.834;4.718;2022-10-31T00:19:09;3.95;;;3.55;;
13927;SDS011;7036;50.834;4.718;2022-10-31T00:21:36;6.30;;;4.43;;
13927;SDS011;7036;50.834;4.718;2022-10-31T00:24:04;4.43;;;3.85;;
13927;SDS011;7036;50.834;4.718;2022-10-31T00:26:32;5.15;;;3.85;;
13927;SDS011;7036;50.834;4.718;2022-10-31T00:29:00;5.13;;;3.85;;
13927;SDS011;7036;50.834;4.718;2022-10-31T00:31:28;6.95;;;4.40;;
13927;SDS011;7036;50.834;4.718;2022-10-31T00:33:55;4.03;;;3.50;;
13927;SDS011;7036;50.834;4.718;2022-10-31T00:36:24;4.50;;;3.95;;
13927;SDS011;7036;50.834;4.718;2022-10-31T00:38:51;4.43;;;3.80;;
13927;SDS011;7036;50.834;4.718;2022-10-31T00:41:19;4.55;;;4.13;;
13927;SDS011;7036;50.834;4.718;2022-10-31T00:43:47;6.25;;;4.00;;
13927;SDS011;7036;50.834;4.718;2022-10-31T00:46:15;5.13;;;3.80;;
13927;SDS011;7036;50.834;4.718;2022-10-31T00:48:42;4.30;;;3.55;;
13927;SDS011;7036;50.834;4.718;2022-10-31T00:51:10;5.70;;;4.20;;
13927;SDS011;7036;50.834;4.718;2022-10-31T00:53:38;4.30;;;3.45;;
13927;SDS011;7036;50.834;4.718;2022-10-31T00:56:06;4.68;;;3.97;;
13927;SDS011;7036;50.834;4.718;2022-10-31T00:58:33;4.10;;;3.70;;
13927;SDS011;7036;50.834;4.718;2022-10-31T01:01:01;4.18;;;3.78;;
13927;SDS011;7036;50.834;4.718;2022-10-31T01:03:29;3.85;;;3.50;;
13927;SDS011;7036;50.834;4.718;2022-10-31T01:05:57;4.57;;;4.18;;
13927;SDS011;7036;50.834;4.718;2022-10-31T01:08:26;3.60;;;3.30;;
13927;SDS011;7036;50.834;4.718;2022-10-31T01:11:04;5.38;;;3.45;;
13927;SDS011;7036;50.834;4.718;2022-10-31T01:13:31;4.50;;;4.10;;
13927;SDS011;7036;50.834;4.718;2022-10-31T01:16:00;4.82;;;3.92;;
13927;SDS011;7036;50.834;4.718;2022-10-31T01:18:27;5.00;;;3.50;;
13927;SDS011;7036;50.834;4.718;2022-10-31T01:21:05;5.35;;;4.22;;
13927;SDS011;7036;50.834;4.718;2022-10-31T01:23:32;4.40;;;4.00;;
13927;SDS011;7036;50.834;4.718;2022-10-31T01:26:01;4.30;;;3.50;;
13927;SDS011;7036;50.834;4.718;2022-10-31T01:28:28;4.18;;;3.38;;
13927;SDS011;7036;50.834;4.718;2022-10-31T01:30:59;4.78;;;3.22;;
13927;SDS011;7036;50.834;4.718;2022-10-31T01:33:23;4.30;;;3.72;;
13927;SDS011;7036;50.834;4.718;2022-10-31T01:35:50;5.05;;;3.67;;
13927;SDS011;7036;50.834;4.718;2022-10-31T01:38:18;4.90;;;3.55;;
13927;SDS011;7036;50.834;4.718;2022-10-31T01:40:46;4.85;;;3.90;;
13927;SDS011;7036;50.834;4.718;2022-10-31T01:43:14;3.80;;;3.33;;
13927;SDS011;7036;50.834;4.718;2022-10-31T01:45:42;4.43;;;3.20;;
13927;SDS011;7036;50.834;4.718;2022-10-31T01:48:12;4.50;;;3.63;;
13927;SDS011;7036;50.834;4.718;2022-10-31T01:50:40;6.50;;;3.92;;
13927;SDS011;7036;50.834;4.718;2022-10-31T01:53:08;4.97;;;3.38;;
13927;SDS011;7036;50.834;4.718;2022-10-31T01:55:38;4.25;;;3.85;;
13927;SDS011;7036;50.834;4.718;2022-10-31T01:58:04;4.45;;;3.92;;
13927;SDS011;7036;50.834;4.718;2022-10-31T02:00:31;4.78;;;3.50;;
13927;SDS011;7036;50.834;4.718;2022-10-31T02:02:59;3.88;;;3.50;;
13927;SDS011;7036;50.834;4.718;2022-10-31T02:05:28;4.40;;;3.60;;
13927;SDS011;7036;50.834;4.718;2022-10-31T02:08:07;5.25;;;3.58;;
13927;SDS011;7036;50.834;4.718;2022-10-31T02:10:32;5.32;;;3.25;;
13927;SDS011;7036;50.834;4.718;2022-10-31T02:13:01;5.43;;;3.63;;
13927;SDS011;7036;50.834;4.718;2022-10-31T02:15:29;3.60;;;3.30;;
13927;SDS011;7036;50.834;4.718;2022-10-31T02:17:57;5.20;;;3.60;;
13927;SDS011;7036;50.834;4.718;2022-10-31T02:20:24;3.90;;;3.40;;
13927;SDS011;7036;50.834;4.718;2022-10-31T02:33:49;3.70;;;3.40;;
13927;SDS011;7036;50.834;4.718;2022-10-31T02:41:37;4.00;;;3.58;;
13927;SDS011;7036;50.834;4.718;2022-10-31T02:44:13;3.38;;;2.90;;
13927;SDS011;7036;50.834;4.718;2022-10-31T02:49:16;3.90;;;3.42;;
13927;SDS011;7036;50.834;4.718;2022-10-31T02:51:39;4.07;;;3.67;;
13927;SDS011;7036;50.834;4.718;2022-10-31T02:54:17;4.65;;;3.10;;
13927;SDS011;7036;50.834;4.718;2022-10-31T02:56:43;5.22;;;3.80;;
13927;SDS011;7036;50.834;4.718;2022-10-31T02:59:11;4.68;;;3.65;;
13927;SDS011;7036;50.834;4.718;2022-10-31T03:01:44;5.78;;;3.88;;
13927;SDS011;7036;50.834;4.718;2022-10-31T03:10:01;4.90;;;3.45;;
13927;SDS011;7036;50.834;4.718;2022-10-31T03:17:35;5.22;;;3.25;;
13927;SDS011;7036;50.834;4.718;2022-10-31T03:19:54;3.65;;;3.22;;
13927;SDS011;7036;50.834;4.718;2022-10-31T03:22:25;4.55;;;3.38;;
13927;SDS011;7036;50.834;4.718;2022-10-31T03:24:52;3.30;;;3.00;;
13927;SDS011;7036;50.834;4.718;2022-10-31T03:27:21;4.60;;;3.30;;
13927;SDS011;7036;50.834;4.718;2022-10-31T03:29:46;3.38;;;3.08;;
13927;SDS011;7036;50.834;4.718;2022-10-31T03:32:22;4.10;;;3.30;;
13927;SDS011;7036;50.834;4.718;2022-10-31T03:34:48;3.47;;;3.17;;
13927;SDS011;7036;50.834;4.718;2022-10-31T03:37:18;4.88;;;3.50;;
13927;SDS011;7036;50.834;4.718;2022-10-31T03:39:43;4.57;;;3.25;;
13927;SDS011;7036;50.834;4.718;2022-10-31T03:42:14;4.85;;;3.33;;
13927;SDS011;7036;50.834;4.718;2022-10-31T03:44:38;4.35;;;3.25;;
13927;SDS011;7036;50.834;4.718;2022-10-31T03:47:06;4.32;;;3.15;;
13927;SDS011;7036;50.834;4.718;2022-10-31T03:49:34;5.70;;;3.28;;
13927;SDS011;7036;50.834;4.718;2022-10-31T03:52:08;5.15;;;3.20;;
13927;SDS011;7036;50.834;4.718;2022-10-31T03:55:18;4.15;;;3.50;;
13927;SDS011;7036;50.834;4.718;2022-10-31T03:57:14;3.80;;;3.22;;
13927;SDS011;7036;50.834;4.718;2022-10-31T03:59:45;4.13;;;3.38;;
13927;SDS011;7036;50.834;4.718;2022-10-31T04:02:16;4.20;;;3.78;;
13927;SDS011;7036;50.834;4.718;2022-10-31T04:04:44;4.65;;;3.75;;
13927;SDS011;7036;50.834;4.718;2022-10-31T04:07:11;3.63;;;3.33;;
13927;SDS011;7036;50.834;4.718;2022-10-31T04:09:38;3.67;;;3.25;;
13927;SDS011;7036;50.834;4.718;2022-10-31T04:12:05;4.18;;;3.50;;
13927;SDS011;7036;50.834;4.718;2022-10-31T04:14:33;3.50;;;3.20;;
13927;SDS011;7036;50.834;4.718;2022-10-31T04:17:02;4.00;;;3.35;;
13927;SDS011;7036;50.834;4.718;2022-10-31T04:19:28;3.78;;;3.40;;
13927;SDS011;7036;50.834;4.718;2022-10-31T04:21:57;3.70;;;3.38;;
13927;SDS011;7036;50.834;4.718;2022-10-31T04:24:25;4.68;;;3.45;;
13927;SDS011;7036;50.834;4.718;2022-10-31T04:26:52;3.67;;;3.38;;
13927;SDS011;7036;50.834;4.718;2022-10-31T04:29:21;5.22;;;3.38;;
13927;SDS011;7036;50.834;4.718;2022-10-31T04:31:48;3.13;;;2.88;;
13927;SDS011;7036;50.834;4.718;2022-10-31T04:34:16;4.22;;;3.50;;
13927;SDS011;7036;50.834;4.718;2022-10-31T04:36:45;4.07;;;3.22;;
13927;SDS011;7036;50.834;4.718;2022-10-31T04:39:13;4.38;;;3.60;;
13927;SDS011;7036;50.834;4.718;2022-10-31T04:41:41;3.25;;;2.92;;
13927;SDS011;7036;50.834;4.718;2022-10-31T04:44:08;3.60;;;3.17;;
13927;SDS011;7036;50.834;4.718;2022-10-31T04:46:35;4.40;;;3.35;;
13927;SDS011;7036;50.834;4.718;2022-10-31T04:49:02;4.75;;;3.50;;
13927;SDS011;7036;50.834;4.718;2022-10-31T04:51:30;3.78;;;3.13;;
13927;SDS011;7036;50.834;4.718;2022-10-31T04:53:57;4.22;;;3.35;;
13927;SDS011;7036;50.834;4.718;2022-10-31T04:56:25;6.60;;;3.20;;
13927;SDS011;7036;50.834;4.718;2022-10-31T04:58:54;4.05;;;2.90;;
13927;SDS011;7036;50.834;4.718;2022-10-31T05:01:22;4.07;;;3.35;;
13927;SDS011;7036;50.834;4.718;2022-10-31T05:03:51;4.35;;;3.28;;
13927;SDS011;7036;50.834;4.718;2022-10-31T05:06:18;6.50;;;3.60;;
13927;SDS011;7036;50.834;4.718;2022-10-31T05:08:45;5.95;;;3.22;;
13927;SDS011;7036;50.834;4.718;2022-10-31T05:11:13;2.80;;;2.60;;
13927;SDS011;7036;50.834;4.718;2022-10-31T05:13:41;5.95;;;3.35;;
13927;SDS011;7036;50.834;4.718;2022-10-31T05:16:08;4.95;;;3.05;;
13927;SDS011;7036;50.834;4.718;2022-10-31T05:18:36;5.75;;;3.42;;
13927;SDS011;7036;50.834;4.718;2022-10-31T05:21:03;3.58;;;3.25;;
13927;SDS011;7036;50.834;4.718;2022-10-31T05:23:31;3.35;;;3.05;;
13927;SDS011;7036;50.834;4.718;2022-10-31T05:25:59;4.25;;;3.55;;
13927;SDS011;7036;50.834;4.718;2022-10-31T05:28:27;3.92;;;3.20;;
13927;SDS011;7036;50.834;4.718;2022-10-31T05:30:55;3.30;;;3.00;;
13927;SDS011;7036;50.834;4.718;2022-10-31T05:33:23;3.80;;;3.30;;
13927;SDS011;7036;50.834;4.718;2022-10-31T05:35:51;3.55;;;3.20;;
13927;SDS011;7036;50.834;4.718;2022-10-31T05:38:18;3.97;;;2.90;;
13927;SDS011;7036;50.834;4.718;2022-10-31T05:40:46;4.95;;;3.20;;
13927;SDS011;7036;50.834;4.718;2022-10-31T05:43:13;3.17;;;2.88;;
13927;SDS011;7036;50.834;4.718;2022-10-31T05:45:40;3.88;;;2.92;;
13927;SDS011;7036;50.834;4.718;2022-10-31T05:48:07;5.75;;;3.05;;
13927;SDS011;7036;50.834;4.718;2022-10-31T05:50:35;3.85;;;3.22;;
13927;SDS011;7036;50.834;4.718;2022-10-31T05:53:03;3.58;;;3.00;;
13927;SDS011;7036;50.834;4.718;2022-10-31T05:55:32;4.57;;;3.38;;
13927;SDS011;7036;50.834;4.718;2022-10-31T05:57:59;4.28;;;3.08;;
13927;SDS011;7036;50.834;4.718;2022-10-31T06:00:27;4.32;;;3.30;;
13927;SDS011;7036;50.834;4.718;2022-10-31T06:03:01;3.97;;;3.20;;
13927;SDS011;7036;50.834;4.718;2022-10-31T06:05:26;4.85;;;3.08;;
13927;SDS011;7036;50.834;4.718;2022-10-31T06:07:54;3.20;;;2.90;;
13927;SDS011;7036;50.834;4.718;2022-10-31T06:10:21;3.30;;;3.00;;
13927;SDS011;7036;50.834;4.718;2022-10-31T06:12:49;3.10;;;2.80;;
13927;SDS011;7036;50.834;4.718;2022-10-31T06:15:18;4.60;;;2.80;;
13927;SDS011;7036;50.834;4.718;2022-10-31T06:17:45;3.75;;;3.08;;
13927;SDS011;7036;50.834;4.718;2022-10-31T06:20:14;3.55;;;2.95;;
13927;SDS011;7036;50.834;4.718;2022-10-31T06:22:42;4.28;;;3.45;;
13927;SDS011;7036;50.834;4.718;2022-10-31T06:25:10;3.50;;;3.20;;
13927;SDS011;7036;50.834;4.718;2022-10-31T06:27:38;3.42;;;3.13;;
13927;SDS011;7036;50.834;4.718;2022-10-31T06:30:06;3.85;;;3.55;;
13927;SDS011;7036;50.834;4.718;2022-10-31T06:32:33;4.68;;;3.25;;
13927;SDS011;7036;50.834;4.718;2022-10-31T06:35:00;3.50;;;3.08;;
13927;SDS011;7036;50.834;4.718;2022-10-31T06:37:27;3.58;;;2.95;;
13927;SDS011;7036;50.834;4.718;2022-10-31T06:39:55;5.20;;;3.67;;
13927;SDS011;7036;50.834;4.718;2022-10-31T06:42:23;4.35;;;3.10;;
13927;SDS011;7036;50.834;4.718;2022-10-31T06:44:51;3.92;;;3.20;;
13927;SDS011;7036;50.834;4.718;2022-10-31T06:47:19;3.78;;;3.20;;
13927;SDS011;7036;50.834;4.718;2022-10-31T06:49:47;3.53;;;3.05;;
13927;SDS011;7036;50.834;4.718;2022-10-31T06:52:14;3.60;;;3.13;;
13927;SDS011;7036;50.834;4.718;2022-10-31T06:54:42;3.45;;;2.63;;
13927;SDS011;7036;50.834;4.718;2022-10-31T06:57:10;3.30;;;2.60;;
13927;SDS011;7036;50.834;4.718;2022-10-31T06:59:38;4.07;;;3.17;;
13927;SDS011;7036;50.834;4.718;2022-10-31T07:02:07;4.35;;;3.40;;
13927;SDS011;7036;50.834;4.718;2022-10-31T07:04:34;3.78;;;3.15;;
13927;SDS011;7036;50.834;4.718;2022-10-31T07:07:01;4.22;;;2.97;;
13927;SDS011;7036;50.834;4.718;2022-10-31T07:09:28;3.88;;;2.97;;
13927;SDS011;7036;50.834;4.718;2022-10-31T07:11:56;3.72;;;3.17;;
13927;SDS011;7036;50.834;4.718;2022-10-31T07:14:23;3.08;;;2.80;;
13927;SDS011;7036;50.834;4.718;2022-10-31T07:16:50;3.55;;;3.25;;
13927;SDS011;7036;50.834;4.718;2022-10-31T07:19:18;3.63;;;2.97;;
13927;SDS011;7036;50.834;4.718;2022-10-31T07:21:46;3.28;;;2.95;;
13927;SDS011;7036;50.834;4.718;2022-10-31T07:24:14;3.65;;;3.15;;
13927;SDS011;7036;50.834;4.718;2022-10-31T07:26:41;2.97;;;2.67;;
13927;SDS011;7036;50.834;4.718;2022-10-31T07:29:09;2.90;;;2.65;;
13927;SDS011;7036;50.834;4.718;2022-10-31T07:31:37;3.58;;;2.97;;
13927;SDS011;7036;50.834;4.718;2022-10-31T07:34:05;6.25;;;4.75;;
13927;SDS011;7036;50.834;4.718;2022-10-31T07:36:32;8.43;;;5.20;;
13927;SDS011;7036;50.834;4.718;2022-10-31T07:39:00;9.80;;;4.50;;
13927;SDS011;7036;50.834;4.718;2022-10-31T07:41:28;5.95;;;4.55;;
13927;SDS011;7036;50.834;4.718;2022-10-31T07:43:56;4.68;;;3.88;;
13927;SDS011;7036;50.834;4.718;2022-10-31T07:46:23;5.45;;;3.67;;
13927;SDS011;7036;50.834;4.718;2022-10-31T07:48:51;4.78;;;3.13;;
13927;SDS011;7036;50.834;4.718;2022-10-31T07:51:18;5.70;;;3.65;;
13927;SDS011;7036;50.834;4.718;2022-10-31T07:53:46;6.57;;;3.70;;
13927;SDS011;7036;50.834;4.718;2022-10-31T07:56:13;5.65;;;3.60;;
13927;SDS011;7036;50.834;4.718;2022-10-31T07:58:41;5.55;;;4.07;;
13927;SDS011;7036;50.834;4.718;2022-10-31T08:01:09;5.82;;;3.72;;
13927;SDS011;7036;50.834;4.718;2022-10-31T08:03:37;5.97;;;4.22;;
13927;SDS011;7036;50.834;4.718;2022-10-31T08:06:04;9.48;;;4.95;;
13927;SDS011;7036;50.834;4.718;2022-10-31T08:08:32;16.58;;;5.95;;
13927;SDS011;7036;50.834;4.718;2022-10-31T08:11:00;9.10;;;4.40;;
13927;SDS011;7036;50.834;4.718;2022-10-31T08:13:28;16.42;;;4.53;;
13927;SDS011;7036;50.834;4.718;2022-10-31T08:15:56;12.38;;;4.47;;
13927;SDS011;7036;50.834;4.718;2022-10-31T08:18:22;10.35;;;4.43;;
13927;SDS011;7036;50.834;4.718;2022-10-31T08:20:50;9.85;;;4.10;;
13927;SDS011;7036;50.834;4.718;2022-10-31T08:23:17;11.98;;;5.03;;
13927;SDS011;7036;50.834;4.718;2022-10-31T08:25:44;16.70;;;5.32;;
13927;SDS011;7036;50.834;4.718;2022-10-31T08:28:12;13.10;;;4.50;;
13927;SDS011;7036;50.834;4.718;2022-10-31T08:30:39;10.77;;;4.18;;
13927;SDS011;7036;50.834;4.718;2022-10-31T08:33:14;24.00;;;4.88;;
13927;SDS011;7036;50.834;4.718;2022-10-31T08:35:39;11.43;;;4.23;;
13927;SDS011;7036;50.834;4.718;2022-10-31T08:38:07;13.38;;;4.38;;
13927;SDS011;7036;50.834;4.718;2022-10-31T08:40:34;19.50;;;5.05;;
13927;SDS011;7036;50.834;4.718;2022-10-31T08:43:14;25.10;;;5.50;;
13927;SDS011;7036;50.834;4.718;2022-10-31T08:45:37;19.63;;;4.73;;
13927;SDS011;7036;50.834;4.718;2022-10-31T08:48:06;10.55;;;5.07;;
13927;SDS011;7036;50.834;4.718;2022-10-31T08:50:32;25.92;;;5.82;;
13927;SDS011;7036;50.834;4.718;2022-10-31T08:52:59;19.20;;;5.75;;
13927;SDS011;7036;50.834;4.718;2022-10-31T08:55:26;21.13;;;6.30;;
13927;SDS011;7036;50.834;4.718;2022-10-31T08:57:56;18.60;;;5.07;;
13927;SDS011;7036;50.834;4.718;2022-10-31T09:00:23;15.83;;;5.80;;
13927;SDS011;7036;50.834;4.718;2022-10-31T09:02:56;31.73;;;5.28;;
13927;SDS011;7036;50.834;4.718;2022-10-31T09:05:23;11.50;;;5.00;;
13927;SDS011;7036;50.834;4.718;2022-10-31T09:07:50;14.70;;;4.77;;
13927;SDS011;7036;50.834;4.718;2022-10-31T09:10:17;12.45;;;5.00;;
13927;SDS011;7036;50.834;4.718;2022-10-31T09:12:45;25.00;;;6.95;;
13927;SDS011;7036;50.834;4.718;2022-10-31T09:15:12;25.73;;;6.75;;
13927;SDS011;7036;50.834;4.718;2022-10-31T09:17:45;14.68;;;5.28;;
13927;SDS011;7036;50.834;4.718;2022-10-31T09:20:08;15.40;;;5.30;;
13927;SDS011;7036;50.834;4.718;2022-10-31T09:22:35;14.17;;;4.70;;
13927;SDS011;7036;50.834;4.718;2022-10-31T09:25:02;12.60;;;4.80;;
13927;SDS011;7036;50.834;4.718;2022-10-31T09:27:29;14.60;;;5.00;;
13927;SDS011;7036;50.834;4.718;2022-10-31T09:29:57;8.15;;;4.40;;
13927;SDS011;7036;50.834;4.718;2022-10-31T09:32:25;8.15;;;4.35;;
13927;SDS011;7036;50.834;4.718;2022-10-31T09:34:53;11.07;;;4.75;;
13927;SDS011;7036;50.834;4.718;2022-10-31T09:37:20;8.63;;;4.38;;
13927;SDS011;7036;50.834;4.718;2022-10-31T09:39:48;9.15;;;4.78;;
13927;SDS011;7036;50.834;4.718;2022-10-31T09:44:50;10.27;;;4.10;;
13927;SDS011;7036;50.834;4.718;2022-10-31T09:47:25;11.67;;;4.60;;
13927;SDS011;7036;50.834;4.718;2022-10-31T09:52:21;10.77;;;4.50;;
13927;SDS011;7036;50.834;4.718;2022-10-31T09:54:55;8.93;;;4.05;;
13927;SDS011;7036;50.834;4.718;2022-10-31T09:57:31;9.20;;;5.03;;
13927;SDS011;7036;50.834;4.718;2022-10-31T09:59:57;8.43;;;4.60;;
13927;SDS011;7036;50.834;4.718;2022-10-31T10:05:04;12.87;;;4.00;;
13927;SDS011;7036;50.834;4.718;2022-10-31T10:10:00;14.05;;;4.90;;
13927;SDS011;7036;50.834;4.718;2022-10-31T10:12:38;9.13;;;4.05;;
13927;SDS011;7036;50.834;4.718;2022-10-31T10:15:06;10.10;;;3.80;;
13927;SDS011;7036;50.834;4.718;2022-10-31T10:17:39;10.30;;;4.22;;
13927;SDS011;7036;50.834;4.718;2022-10-31T10:22:51;6.33;;;3.63;;
13927;SDS011;7036;50.834;4.718;2022-10-31T10:25:16;6.68;;;3.90;;
13927;SDS011;7036;50.834;4.718;2022-10-31T10:27:54;5.33;;;3.90;;
13927;SDS011;7036;50.834;4.718;2022-10-31T10:30:30;10.80;;;4.10;;
13927;SDS011;7036;50.834;4.718;2022-10-31T10:32:59;11.53;;;4.90;;
13927;SDS011;7036;50.834;4.718;2022-10-31T10:35:30;12.75;;;5.05;;
13927;SDS011;7036;50.834;4.718;2022-10-31T10:40:53;17.03;;;4.40;;
13927;SDS011;7036;50.834;4.718;2022-10-31T10:43:34;16.40;;;4.00;;
13927;SDS011;7036;50.834;4.718;2022-10-31T10:46:04;9.17;;;4.23;;
13927;SDS011;7036;50.834;4.718;2022-10-31T10:48:48;15.77;;;4.93;;
13927;SDS011;7036;50.834;4.718;2022-10-31T10:51:20;7.05;;;3.88;;
13927;SDS011;7036;50.834;4.718;2022-10-31T10:56:18;9.83;;;4.40;;
13927;SDS011;7036;50.834;4.718;2022-10-31T10:58:42;11.50;;;4.82;;
13927;SDS011;7036;50.834;4.718;2022-10-31T11:01:12;18.42;;;5.53;;
13927;SDS011;7036;50.834;4.718;2022-10-31T11:03:40;12.17;;;5.57;;
13927;SDS011;7036;50.834;4.718;2022-10-31T11:06:16;8.17;;;4.13;;
13927;SDS011;7036;50.834;4.718;2022-10-31T11:08:42;9.43;;;4.70;;
13927;SDS011;7036;50.834;4.718;2022-10-31T11:13:42;14.20;;;4.90;;
13927;SDS011;7036;50.834;4.718;2022-10-31T11:16:11;8.85;;;4.55;;
13927;SDS011;7036;50.834;4.718;2022-10-31T11:18:38;11.82;;;4.40;;
13927;SDS011;7036;50.834;4.718;2022-10-31T11:21:05;9.65;;;4.53;;
13927;SDS011;7036;50.834;4.718;2022-10-31T11:23:33;9.80;;;4.70;;
13927;SDS011;7036;50.834;4.718;2022-10-31T11:26:16;9.30;;;4.45;;
13927;SDS011;7036;50.834;4.718;2022-10-31T11:28:32;9.63;;;4.83;;
13927;SDS011;7036;50.834;4.718;2022-10-31T11:31:08;7.20;;;4.87;;
13927;SDS011;7036;50.834;4.718;2022-10-31T11:38:53;14.10;;;7.50;;
13927;SDS011;7036;50.834;4.718;2022-10-31T11:41:25;14.48;;;7.13;;
13927;SDS011;7036;50.834;4.718;2022-10-31T11:43:54;11.40;;;7.33;;
13927;SDS011;7036;50.834;4.718;2022-10-31T11:48:59;11.13;;;6.47;;
13927;SDS011;7036;50.834;4.718;2022-10-31T11:51:29;19.50;;;7.15;;
13927;SDS011;7036;50.834;4.718;2022-10-31T11:53:54;11.05;;;5.93;;
13927;SDS011;7036;50.834;4.718;2022-10-31T11:56:20;10.93;;;6.13;;
13927;SDS011;7036;50.834;4.718;2022-10-31T11:58:59;9.25;;;5.78;;
13927;SDS011;7036;50.834;4.718;2022-10-31T12:01:25;10.70;;;5.33;;
13927;SDS011;7036;50.834;4.718;2022-10-31T12:03:54;9.65;;;5.68;;
13927;SDS011;7036;50.834;4.718;2022-10-31T12:06:25;12.83;;;5.60;;
13927;SDS011;7036;50.834;4.718;2022-10-31T12:08:52;7.80;;;5.65;;
13927;SDS011;7036;50.834;4.718;2022-10-31T12:14:02;12.93;;;5.57;;
13927;SDS011;7036;50.834;4.718;2022-10-31T12:19:00;10.30;;;4.78;;
13927;SDS011;7036;50.834;4.718;2022-10-31T12:24:35;8.53;;;5.00;;
13927;SDS011;7036;50.834;4.718;2022-10-31T12:30:08;8.43;;;4.90;;
13927;SDS011;7036;50.834;4.718;2022-10-31T12:35:27;11.10;;;5.33;;
13927;SDS011;7036;50.834;4.718;2022-10-31T12:38:07;9.37;;;5.67;;
13927;SDS011;7036;50.834;4.718;2022-10-31T12:40:36;8.30;;;5.10;;
13927;SDS011;7036;50.834;4.718;2022-10-31T12:46:29;7.90;;;4.70;;
13927;SDS011;7036;50.834;4.718;2022-10-31T12:51:41;12.77;;;5.63;;
13927;SDS011;7036;50.834;4.718;2022-10-31T12:59:43;9.97;;;5.07;;
13927;SDS011;7036;50.834;4.718;2022-10-31T13:05:00;9.23;;;4.63;;
13927;SDS011;7036;50.834;4.718;2022-10-31T13:08:00;9.27;;;5.17;;
13927;SDS011;7036;50.834;4.718;2022-10-31T13:10:26;6.17;;;4.20;;
13927;SDS011;7036;50.834;4.718;2022-10-31T13:15:46;11.23;;;4.83;;
13927;SDS011;7036;50.834;4.718;2022-10-31T13:18:27;15.00;;;5.00;;
13927;SDS011;7036;50.834;4.718;2022-10-31T13:20:47;8.07;;;4.50;;
13927;SDS011;7036;50.834;4.718;2022-10-31T13:23:27;11.45;;;5.28;;
13927;SDS011;7036;50.834;4.718;2022-10-31T13:25:56;10.20;;;4.77;;
13927;SDS011;7036;50.834;4.718;2022-10-31T13:28:40;16.80;;;4.78;;
13927;SDS011;7036;50.834;4.718;2022-10-31T13:31:15;9.60;;;4.23;;
13927;SDS011;7036;50.834;4.718;2022-10-31T13:33:43;11.80;;;4.85;;
13927;SDS011;7036;50.834;4.718;2022-10-31T13:36:17;10.23;;;4.80;;
13927;SDS011;7036;50.834;4.718;2022-10-31T13:39:08;12.90;;;5.20;;
13927;SDS011;7036;50.834;4.718;2022-10-31T13:44:23;11.67;;;4.43;;
13927;SDS011;7036;50.834;4.718;2022-10-31T13:46:49;13.63;;;4.23;;
13927;SDS011;7036;50.834;4.718;2022-10-31T13:49:23;11.38;;;4.55;;
13927;SDS011;7036;50.834;4.718;2022-10-31T13:52:56;10.27;;;4.57;;
13927;SDS011;7036;50.834;4.718;2022-10-31T13:54:38;12.13;;;4.40;;
13927;SDS011;7036;50.834;4.718;2022-10-31T13:57:22;5.78;;;4.00;;
13927;SDS011;7036;50.834;4.718;2022-10-31T14:00:01;8.70;;;4.07;;
13927;SDS011;7036;50.834;4.718;2022-10-31T14:02:30;9.83;;;4.60;;
13927;SDS011;7036;50.834;4.718;2022-10-31T14:04:59;7.00;;;3.67;;
13927;SDS011;7036;50.834;4.718;2022-10-31T14:07:25;10.50;;;4.60;;
13927;SDS011;7036;50.834;4.718;2022-10-31T14:10:03;10.27;;;4.30;;
13927;SDS011;7036;50.834;4.718;2022-10-31T14:15:19;9.07;;;4.30;;
13927;SDS011;7036;50.834;4.718;2022-10-31T14:17:46;9.73;;;4.40;;
13927;SDS011;7036;50.834;4.718;2022-10-31T14:22:41;18.33;;;5.35;;
13927;SDS011;7036;50.834;4.718;2022-10-31T14:25:29;26.83;;;8.18;;
13927;SDS011;7036;50.834;4.718;2022-10-31T14:27:58;17.93;;;4.57;;
13927;SDS011;7036;50.834;4.718;2022-10-31T14:30:26;8.73;;;4.40;;
13927;SDS011;7036;50.834;4.718;2022-10-31T14:32:53;15.40;;;4.67;;
13927;SDS011;7036;50.834;4.718;2022-10-31T14:35:22;14.57;;;4.97;;
13927;SDS011;7036;50.834;4.718;2022-10-31T14:51:02;17.42;;;5.03;;
13927;SDS011;7036;50.834;4.718;2022-10-31T14:53:31;10.40;;;4.60;;
13927;SDS011;7036;50.834;4.718;2022-10-31T14:55:56;11.03;;;5.10;;
13927;SDS011;7036;50.834;4.718;2022-10-31T14:58:25;11.17;;;5.10;;
13927;SDS011;7036;50.834;4.718;2022-10-31T15:01:05;15.60;;;5.83;;
13927;SDS011;7036;50.834;4.718;2022-10-31T15:03:39;13.87;;;5.20;;
13927;SDS011;7036;50.834;4.718;2022-10-31T15:06:09;9.47;;;4.87;;
13927;SDS011;7036;50.834;4.718;2022-10-31T15:08:34;13.27;;;5.40;;
13927;SDS011;7036;50.834;4.718;2022-10-31T15:11:13;15.32;;;6.57;;
13927;SDS011;7036;50.834;4.718;2022-10-31T15:13:42;20.13;;;7.30;;
13927;SDS011;7036;50.834;4.718;2022-10-31T15:16:21;30.07;;;7.53;;
13927;SDS011;7036;50.834;4.718;2022-10-31T15:18:56;17.10;;;6.20;;
13927;SDS011;7036;50.834;4.718;2022-10-31T15:21:23;20.07;;;5.90;;
13927;SDS011;7036;50.834;4.718;2022-10-31T15:23:50;10.35;;;5.60;;
13927;SDS011;7036;50.834;4.718;2022-10-31T15:26:21;13.50;;;5.87;;
13927;SDS011;7036;50.834;4.718;2022-10-31T15:29:03;16.47;;;5.57;;
13927;SDS011;7036;50.834;4.718;2022-10-31T15:31:28;17.90;;;5.67;;
13927;SDS011;7036;50.834;4.718;2022-10-31T15:33:56;11.23;;;5.03;;
13927;SDS011;7036;50.834;4.718;2022-10-31T15:36:24;17.73;;;5.30;;
13927;SDS011;7036;50.834;4.718;2022-10-31T15:38:52;14.55;;;5.82;;
13927;SDS011;7036;50.834;4.718;2022-10-31T15:41:22;13.30;;;5.07;;
13927;SDS011;7036;50.834;4.718;2022-10-31T15:44:11;14.60;;;5.40;;
13927;SDS011;7036;50.834;4.718;2022-10-31T15:46:40;15.67;;;5.10;;
13927;SDS011;7036;50.834;4.718;2022-10-31T15:49:51;7.82;;;4.53;;
13927;SDS011;7036;50.834;4.718;2022-10-31T15:51:57;9.30;;;5.00;;
13927;SDS011;7036;50.834;4.718;2022-10-31T15:54:24;12.50;;;5.23;;
13927;SDS011;7036;50.834;4.718;2022-10-31T15:56:51;12.68;;;5.18;;
13927;SDS011;7036;50.834;4.718;2022-10-31T15:59:20;20.92;;;5.50;;
13927;SDS011;7036;50.834;4.718;2022-10-31T16:01:55;11.93;;;6.07;;
13927;SDS011;7036;50.834;4.718;2022-10-31T16:06:41;8.20;;;4.75;;
13927;SDS011;7036;50.834;4.718;2022-10-31T16:09:22;9.52;;;4.97;;
13927;SDS011;7036;50.834;4.718;2022-10-31T16:11:48;10.23;;;4.63;;
13927;SDS011;7036;50.834;4.718;2022-10-31T16:14:16;12.38;;;4.70;;
13927;SDS011;7036;50.834;4.718;2022-10-31T16:16:46;9.35;;;4.32;;
13927;SDS011;7036;50.834;4.718;2022-10-31T16:19:19;11.50;;;4.80;;
13927;SDS011;7036;50.834;4.718;2022-10-31T16:21:50;11.23;;;5.17;;
13927;SDS011;7036;50.834;4.718;2022-10-31T16:24:32;10.87;;;4.70;;
13927;SDS011;7036;50.834;4.718;2022-10-31T16:27:01;14.10;;;4.90;;
13927;SDS011;7036;50.834;4.718;2022-10-31T16:29:37;14.10;;;4.43;;
13927;SDS011;7036;50.834;4.718;2022-10-31T16:32:01;8.10;;;4.10;;
13927;SDS011;7036;50.834;4.718;2022-10-31T16:34:28;8.43;;;4.72;;
13927;SDS011;7036;50.834;4.718;2022-10-31T16:36:56;10.02;;;4.70;;
13927;SDS011;7036;50.834;4.718;2022-10-31T16:39:23;10.15;;;4.25;;
13927;SDS011;7036;50.834;4.718;2022-10-31T16:41:51;15.57;;;4.85;;
13927;SDS011;7036;50.834;4.718;2022-10-31T16:44:23;9.13;;;4.72;;
13927;SDS011;7036;50.834;4.718;2022-10-31T16:47:01;8.67;;;4.00;;
13927;SDS011;7036;50.834;4.718;2022-10-31T16:49:21;10.70;;;4.47;;
13927;SDS011;7036;50.834;4.718;2022-10-31T16:51:49;7.57;;;4.03;;
13927;SDS011;7036;50.834;4.718;2022-10-31T16:54:17;10.30;;;4.07;;
13927;SDS011;7036;50.834;4.718;2022-10-31T16:56:45;10.57;;;4.70;;
13927;SDS011;7036;50.834;4.718;2022-10-31T16:59:12;11.13;;;4.57;;
13927;SDS011;7036;50.834;4.718;2022-10-31T17:01:40;9.63;;;4.30;;
13927;SDS011;7036;50.834;4.718;2022-10-31T17:04:11;8.25;;;4.53;;